Time;durP1;ratioP1;P1;durP2;ratioP2;P2;SDS_P1;SDS_P2;PMS_P1;PMS_P2;Temp;Humidity;BMP_temperature;BMP_pressure;BME280_temperature;BME280_humidity;BME280_pressure;Samples;Min_cycle;Max_cycle;Signal;HPM_P1;HPM_P2
2022/07/13 00:01:35;;;;;;;4.20;2.95;;;23.00;75.30;;;;;;1935929;74;21023;-65
2022/07/13 00:04:05;;;;;;;6.10;2.90;;;22.90;75.20;;;;;;1936095;74;21043;-65
2022/07/13 00:06:34;;;;;;;5.15;3.35;;;22.90;75.60;;;;;;1935980;74;21085;-65
2022/07/13 00:09:04;;;;;;;4.58;2.90;;;22.90;75.60;;;;;;1936124;74;21019;-65
2022/07/13 00:11:33;;;;;;;3.58;2.87;;;22.90;75.40;;;;;;1935973;74;21031;-64
2022/07/13 00:14:03;;;;;;;3.27;2.98;;;23.00;75.30;;;;;;1936060;74;21047;-64
2022/07/13 00:16:32;;;;;;;3.62;2.80;;;22.90;75.40;;;;;;1935875;74;21047;-65
2022/07/13 00:19:02;;;;;;;6.47;3.45;;;23.00;75.60;;;;;;1936039;74;21066;-65
2022/07/13 00:21:31;;;;;;;12.98;3.80;;;23.00;75.50;;;;;;1935964;74;21093;-65
2022/07/13 00:24:00;;;;;;;4.03;3.45;;;22.90;75.30;;;;;;1936050;74;21031;-65
2022/07/13 00:26:30;;;;;;;3.52;3.10;;;22.90;75.40;;;;;;1936040;74;21022;-65
2022/07/13 00:28:59;;;;;;;4.85;3.10;;;22.90;75.40;;;;;;1936054;74;21086;-65
2022/07/13 00:31:28;;;;;;;6.97;2.98;;;22.90;75.70;;;;;;1935940;74;21035;-65
2022/07/13 00:33:58;;;;;;;6.72;2.80;;;22.90;75.60;;;;;;1935924;74;21104;-65
2022/07/13 00:36:27;;;;;;;3.47;2.92;;;22.90;75.50;;;;;;1935973;74;21536;-65
2022/07/13 00:38:56;;;;;;;4.00;3.00;;;22.80;75.50;;;;;;1935968;74;21015;-64
2022/07/13 00:41:26;;;;;;;4.22;3.02;;;22.80;75.70;;;;;;1935405;74;21022;-63
2022/07/13 00:44:09;;;;;;;4.60;3.20;;;22.80;75.50;;;;;;1919273;74;21093;-64
2022/07/13 00:46:41;;;;;;;3.17;2.72;;;22.70;75.50;;;;;;1919366;74;21102;-65
2022/07/13 00:49:12;;;;;;;3.10;2.87;;;22.70;75.80;;;;;;1919249;75;21121;-64
2022/07/13 00:51:42;;;;;;;5.10;3.02;;;22.60;75.70;;;;;;1919156;75;21098;-64
2022/07/13 00:54:12;;;;;;;5.40;2.85;;;22.60;75.70;;;;;;1919270;75;21007;-65
2022/07/13 00:56:42;;;;;;;3.58;2.70;;;22.60;75.60;;;;;;1919293;75;21032;-64
2022/07/13 00:59:12;;;;;;;3.60;2.80;;;22.60;75.70;;;;;;1919229;75;20992;-64
2022/07/13 01:01:41;;;;;;;5.90;3.00;;;22.60;75.90;;;;;;1919201;75;21031;-64
2022/07/13 01:04:11;;;;;;;6.47;2.70;;;22.60;76.00;;;;;;1919288;75;21024;-64
2022/07/13 01:06:40;;;;;;;8.90;3.50;;;22.50;76.20;;;;;;1919193;75;21031;-64
2022/07/13 01:09:10;;;;;;;3.10;2.80;;;22.50;76.20;;;;;;1919240;74;21101;-64
2022/07/13 01:11:41;;;;;;;6.40;2.85;;;22.50;76.00;;;;;;1919304;75;21023;-64
2022/07/13 01:14:11;;;;;;;4.37;3.75;;;22.40;76.20;;;;;;1919233;75;21028;-64
2022/07/13 01:16:41;;;;;;;3.40;3.10;;;22.30;76.20;;;;;;1919198;75;21024;-64
2022/07/13 01:19:13;;;;;;;4.15;3.52;;;22.30;76.40;;;;;;1919317;75;21450;-64
2022/07/13 01:21:45;;;;;;;7.08;3.52;;;22.20;76.30;;;;;;1919294;75;21044;-64
2022/07/13 01:24:14;;;;;;;5.30;3.35;;;22.00;76.50;;;;;;1919232;75;21085;-64
2022/07/13 01:26:44;;;;;;;3.80;3.42;;;22.00;77.00;;;;;;1919159;74;21051;-64
2022/07/13 01:29:13;;;;;;;5.67;3.50;;;22.00;77.30;;;;;;1919143;74;20996;-64
2022/07/13 01:31:43;;;;;;;4.87;3.22;;;22.00;77.40;;;;;;1893566;75;21007;-64
2022/07/13 01:34:13;;;;;;;3.58;2.85;;;22.00;77.60;;;;;;1919152;75;21089;-64
2022/07/13 01:36:45;;;;;;;4.12;3.55;;;22.00;77.60;;;;;;1918976;74;21055;-64
2022/07/13 01:39:14;;;;;;;3.95;3.12;;;22.10;77.20;;;;;;1919325;75;21073;-64
2022/07/13 01:41:43;;;;;;;6.08;3.20;;;22.10;76.60;;;;;;1919259;75;21089;-64
2022/07/13 01:44:15;;;;;;;5.37;2.72;;;22.10;76.40;;;;;;1934993;74;21517;-65
2022/07/13 01:46:45;;;;;;;3.05;2.80;;;22.10;76.60;;;;;;1935887;74;21035;-65
2022/07/13 01:49:14;;;;;;;3.17;2.87;;;22.00;76.90;;;;;;1935907;74;21018;-65
2022/07/13 01:51:43;;;;;;;4.50;3.00;;;22.00;77.10;;;;;;1936008;74;21055;-65
2022/07/13 01:54:13;;;;;;;4.05;3.25;;;22.00;76.90;;;;;;1935914;74;21031;-64
2022/07/13 01:56:43;;;;;;;5.70;3.30;;;21.90;77.20;;;;;;1935896;74;21086;-64
2022/07/13 01:59:12;;;;;;;3.42;2.62;;;21.90;77.20;;;;;;1935981;74;21096;-64
2022/07/13 02:01:41;;;;;;;6.45;3.20;;;21.90;77.50;;;;;;1935842;74;21504;-64
2022/07/13 02:04:12;;;;;;;4.65;2.70;;;21.90;77.60;;;;;;1935899;74;21046;-64
2022/07/13 02:06:41;;;;;;;5.30;2.72;;;21.90;77.70;;;;;;1935934;74;21023;-64
2022/07/13 02:09:10;;;;;;;5.10;2.65;;;21.90;77.50;;;;;;1936026;74;21515;-64
2022/07/13 02:11:40;;;;;;;3.95;2.62;;;21.90;77.30;;;;;;1935906;74;21031;-65
2022/07/13 02:14:09;;;;;;;4.33;3.22;;;22.00;77.30;;;;;;1935957;74;21128;-65
2022/07/13 02:16:50;;;;;;;4.70;2.83;;;22.00;77.10;;;;;;1935811;74;21144;-65
2022/07/13 02:19:18;;;;;;;2.98;2.67;;;22.00;77.20;;;;;;1902409;75;21542;-65
2022/07/13 02:21:49;;;;;;;4.15;2.80;;;22.00;76.90;;;;;;1902968;75;21519;-65
2022/07/13 02:24:19;;;;;;;4.42;3.20;;;22.10;77.30;;;;;;1902948;75;21560;-65
2022/07/13 02:26:49;;;;;;;3.98;2.92;;;22.10;77.30;;;;;;1902908;75;21026;-65
2022/07/13 02:29:19;;;;;;;4.30;3.17;;;22.10;77.30;;;;;;1902859;75;21018;-65
2022/07/13 02:31:48;;;;;;;3.58;3.12;;;22.20;77.40;;;;;;1902850;75;21089;-65
2022/07/13 02:34:17;;;;;;;5.65;3.58;;;22.20;77.00;;;;;;1903005;75;21043;-65
2022/07/13 02:36:48;;;;;;;7.60;3.05;;;22.10;77.10;;;;;;1902760;75;21157;-65
2022/07/13 02:39:17;;;;;;;5.72;3.30;;;22.10;76.90;;;;;;1902965;75;21030;-65
2022/07/13 02:41:46;;;;;;;4.58;3.40;;;22.10;77.10;;;;;;1902975;75;21042;-65
2022/07/13 02:44:16;;;;;;;3.27;2.92;;;22.10;77.30;;;;;;1902815;75;21042;-65
2022/07/13 02:46:45;;;;;;;5.90;3.10;;;22.10;77.30;;;;;;1902853;75;21100;-64
2022/07/13 02:49:15;;;;;;;8.68;4.17;;;22.30;77.30;;;;;;1903004;75;21121;-65
2022/07/13 02:51:44;;;;;;;6.50;3.40;;;22.40;77.10;;;;;;1902902;75;21085;-65
2022/07/13 02:54:26;;;;;;;;;;;;;;;;;;;;;
2022/07/13 02:56:57;;;;;;;14.18;3.85;;;22.50;76.50;;;;;;1828554;78;21098;-66
2022/07/13 02:59:27;;;;;;;19.35;3.65;;;22.60;76.20;;;;;;1859761;77;21147;-65
2022/07/13 03:01:57;;;;;;;7.30;3.25;;;22.60;75.90;;;;;;1827187;78;21133;-65
2022/07/13 03:04:27;;;;;;;10.80;3.17;;;22.60;76.00;;;;;;1827191;78;21025;-65
2022/07/13 03:06:56;;;;;;;19.98;4.75;;;22.60;76.00;;;;;;1827143;78;21123;-64
2022/07/13 03:09:25;;;;;;;9.08;4.20;;;22.70;75.80;;;;;;1827191;78;21131;-65
2022/07/13 03:11:55;;;;;;;15.20;3.98;;;22.60;76.40;;;;;;1827153;78;21053;-65
2022/07/13 03:14:25;;;;;;;8.95;3.25;;;22.60;75.70;;;;;;1827265;78;21025;-64
2022/07/13 03:16:54;;;;;;;3.92;2.85;;;22.60;75.70;;;;;;1827242;78;21041;-64
2022/07/13 03:19:23;;;;;;;3.27;2.70;;;22.70;76.00;;;;;;1827190;78;21025;-65
2022/07/13 03:21:53;;;;;;;8.25;3.12;;;22.80;75.90;;;;;;1827228;77;21049;-64
2022/07/13 03:24:22;;;;;;;10.85;3.33;;;22.90;75.40;;;;;;1827243;78;21025;-65
2022/07/13 03:26:52;;;;;;;4.33;3.17;;;23.00;75.30;;;;;;1827175;78;21103;-65
2022/07/13 03:29:24;;;;;;;18.05;4.65;;;23.10;75.20;;;;;;1827336;78;21061;-64
2022/07/13 03:31:53;;;;;;;6.50;2.90;;;23.20;74.80;;;;;;1827354;78;21119;-64
2022/07/13 03:34:23;;;;;;;3.70;3.17;;;23.30;74.40;;;;;;1827109;78;21103;-65
2022/07/13 03:36:52;;;;;;;7.22;3.30;;;23.50;74.10;;;;;;1827174;78;21111;-65
2022/07/13 03:39:22;;;;;;;5.85;3.10;;;23.60;73.60;;;;;;1827182;78;21049;-65
2022/07/13 03:41:51;;;;;;;12.18;3.77;;;23.80;73.10;;;;;;1827137;78;21088;-66
2022/07/13 03:44:21;;;;;;;6.35;3.67;;;23.90;72.90;;;;;;1827121;78;21130;-66
2022/07/13 03:46:50;;;;;;;5.72;2.70;;;23.90;72.50;;;;;;1827057;78;21013;-65
2022/07/13 03:49:20;;;;;;;3.75;3.37;;;24.00;72.60;;;;;;1827316;78;21041;-65
2022/07/13 03:51:50;;;;;;;5.95;3.20;;;24.10;72.50;;;;;;1827127;78;21127;-64
2022/07/13 03:54:19;;;;;;;10.38;3.65;;;24.10;72.30;;;;;;1827112;78;21041;-64
2022/07/13 03:56:49;;;;;;;11.08;4.10;;;24.20;72.10;;;;;;1834190;78;21142;-64
2022/07/13 03:59:19;;;;;;;31.33;4.95;;;24.20;71.60;;;;;;1839615;78;21058;-64
2022/07/13 04:01:49;;;;;;;7.70;2.98;;;24.30;71.50;;;;;;1870737;77;21123;-65
2022/07/13 04:04:18;;;;;;;8.25;4.58;;;24.30;71.50;;;;;;1870742;77;21118;-65
2022/07/13 04:06:48;;;;;;;8.38;4.03;;;24.50;71.30;;;;;;1870716;77;21053;-65
2022/07/13 04:09:18;;;;;;;9.10;4.33;;;24.50;71.30;;;;;;1870699;77;21037;-65
2022/07/13 04:11:48;;;;;;;7.75;3.55;;;24.50;71.10;;;;;;1870620;76;21020;-64
2022/07/13 04:14:17;;;;;;;15.00;5.00;;;24.60;71.00;;;;;;1870735;77;21107;-65
2022/07/13 04:16:47;;;;;;;8.53;4.00;;;24.70;70.60;;;;;;1870623;77;21041;-65
2022/07/13 04:19:16;;;;;;;18.75;5.97;;;24.80;69.70;;;;;;1870692;76;21041;-65
2022/07/13 04:21:47;;;;;;;5.40;3.17;;;24.80;70.20;;;;;;1870823;77;21115;-65
2022/07/13 04:24:16;;;;;;;7.70;3.40;;;24.80;69.00;;;;;;1870660;77;21004;-65
2022/07/13 04:26:46;;;;;;;5.83;3.35;;;24.80;68.30;;;;;;1870678;76;21053;-65
2022/07/13 04:29:15;;;;;;;3.65;2.10;;;24.90;67.40;;;;;;1870684;77;21099;-65
2022/07/13 04:31:46;;;;;;;2.75;1.98;;;24.80;66.30;;;;;;1870768;77;21037;-65
2022/07/13 04:34:16;;;;;;;5.28;2.15;;;24.80;66.40;;;;;;1869955;77;21193;-65
2022/07/13 04:36:46;;;;;;;5.15;2.47;;;24.80;65.90;;;;;;1870508;77;21040;-65
2022/07/13 04:39:16;;;;;;;6.72;2.95;;;24.70;65.30;;;;;;1870711;75;21017;-65
2022/07/13 04:41:46;;;;;;;11.95;3.27;;;24.70;65.80;;;;;;1870661;75;21016;-65
2022/07/13 04:44:15;;;;;;;3.45;2.40;;;24.70;65.50;;;;;;1870651;77;21029;-65
2022/07/13 04:46:45;;;;;;;5.58;2.52;;;24.80;65.50;;;;;;1869978;77;21037;-65
2022/07/13 04:49:15;;;;;;;4.15;2.35;;;24.80;65.30;;;;;;1870758;77;21098;-65
2022/07/13 04:51:44;;;;;;;4.03;2.42;;;24.90;65.10;;;;;;1870648;77;21044;-65
2022/07/13 04:54:15;;;;;;;9.53;3.00;;;25.00;65.10;;;;;;1870658;77;21036;-65
2022/07/13 04:56:44;;;;;;;4.58;3.50;;;25.00;64.40;;;;;;1869429;77;21154;-65
2022/07/13 04:59:14;;;;;;;7.00;3.30;;;25.10;64.90;;;;;;1867278;77;21016;-65
2022/07/13 05:01:44;;;;;;;4.55;3.27;;;25.10;64.60;;;;;;1867291;77;21037;-65
2022/07/13 05:04:13;;;;;;;3.33;3.02;;;25.10;64.80;;;;;;1867361;77;21044;-65
2022/07/13 05:06:43;;;;;;;5.70;3.58;;;25.20;64.50;;;;;;1867239;77;21574;-65
2022/07/13 05:09:13;;;;;;;5.00;3.95;;;25.20;64.90;;;;;;1867288;77;21037;-65
2022/07/13 05:11:45;;;;;;;9.90;4.42;;;25.30;64.90;;;;;;1867138;77;21044;-65
2022/07/13 05:14:35;;;;;;;11.30;5.30;;;25.40;64.70;;;;;;1908700;75;21105;-64
2022/07/13 05:17:03;;;;;;;7.47;5.70;;;25.40;64.60;;;;;;1908808;75;21519;-64
2022/07/13 05:19:33;;;;;;;44.88;39.00;;;25.50;65.00;;;;;;1908744;75;21025;-64
2022/07/13 05:22:03;;;;;;;8.15;4.78;;;25.50;65.00;;;;;;1908576;75;21029;-64
2022/07/13 05:24:33;;;;;;;5.15;4.47;;;25.60;65.00;;;;;;1908742;75;21025;-65
2022/07/13 05:27:02;;;;;;;6.97;5.17;;;25.70;65.20;;;;;;1908600;75;21115;-65
2022/07/13 05:29:33;;;;;;;13.13;5.45;;;25.80;65.10;;;;;;1908640;75;21118;-64
2022/07/13 05:32:02;;;;;;;7.53;5.60;;;25.70;65.30;;;;;;1908653;75;21028;-64
2022/07/13 05:34:31;;;;;;;10.10;5.08;;;25.70;65.80;;;;;;1908519;75;21024;-65
2022/07/13 05:37:01;;;;;;;6.62;5.22;;;25.70;65.80;;;;;;1908650;75;21150;-65
2022/07/13 05:39:30;;;;;;;9.93;5.67;;;25.70;65.90;;;;;;1908514;75;21483;-66
2022/07/13 05:42:00;;;;;;;9.30;6.50;;;25.70;66.20;;;;;;1908613;75;21063;-66
2022/07/13 05:44:29;;;;;;;8.68;6.70;;;25.70;66.30;;;;;;1908728;75;21079;-66
2022/07/13 05:47:00;;;;;;;9.73;6.17;;;25.90;66.60;;;;;;1908525;75;21048;-66
2022/07/13 05:49:30;;;;;;;12.15;6.22;;;25.90;66.60;;;;;;1908634;75;21103;-66
2022/07/13 05:51:59;;;;;;;8.15;6.60;;;26.10;66.90;;;;;;1908567;75;21091;-66
2022/07/13 05:54:35;;;;;;;10.45;8.50;;;26.20;66.80;;;;;;1908581;75;21024;-66
2022/07/13 05:57:23;;;;;;;11.68;6.95;;;26.30;66.60;;;;;;1892188;76;21143;-67
2022/07/13 05:59:53;;;;;;;9.83;6.28;;;26.30;66.70;;;;;;1892160;76;21167;-67
2022/07/13 06:02:22;;;;;;;13.58;7.03;;;26.30;66.60;;;;;;1892275;76;21041;-67
2022/07/13 06:04:52;;;;;;;11.22;8.25;;;26.40;66.50;;;;;;1892182;76;21100;-67
2022/07/13 06:07:21;;;;;;;10.95;7.03;;;26.40;66.30;;;;;;1892200;76;21025;-68
2022/07/13 06:09:50;;;;;;;7.90;6.20;;;26.40;66.30;;;;;;1892192;76;21033;-68
2022/07/13 06:12:20;;;;;;;10.13;8.25;;;26.40;66.40;;;;;;1892207;76;21065;-68
2022/07/13 06:14:49;;;;;;;9.03;6.53;;;26.40;66.80;;;;;;1892086;76;21013;-68
2022/07/13 06:17:19;;;;;;;9.30;7.75;;;26.50;67.10;;;;;;1892168;76;21085;-68
2022/07/13 06:19:49;;;;;;;11.45;7.83;;;26.60;67.10;;;;;;1892099;76;21065;-68
2022/07/13 06:22:18;;;;;;;13.08;7.22;;;26.60;67.00;;;;;;1892350;76;21099;-68
2022/07/13 06:24:47;;;;;;;11.70;6.25;;;26.70;66.90;;;;;;1892220;75;21094;-68
2022/07/13 06:27:16;;;;;;;9.93;6.47;;;26.80;67.20;;;;;;1892182;76;21041;-68
2022/07/13 06:29:46;;;;;;;8.35;7.30;;;26.90;67.10;;;;;;1892206;76;21100;-68
2022/07/13 06:32:15;;;;;;;11.78;7.85;;;27.00;66.80;;;;;;1892136;76;21013;-67
2022/07/13 06:34:45;;;;;;;12.58;8.53;;;27.10;67.30;;;;;;1892134;76;21175;-67
2022/07/13 06:37:14;;;;;;;14.15;9.33;;;27.20;67.20;;;;;;1892367;76;21103;-67
2022/07/13 06:39:43;;;;;;;11.68;8.25;;;27.30;67.30;;;;;;1892185;75;21080;-67
2022/07/13 06:42:13;;;;;;;10.98;7.87;;;27.30;67.50;;;;;;1892200;76;20999;-67
2022/07/13 06:44:44;;;;;;;12.88;9.88;;;27.30;67.70;;;;;;1919692;75;21093;-67
2022/07/13 06:47:13;;;;;;;14.30;9.50;;;27.40;67.50;;;;;;1886661;76;21073;-67
2022/07/13 06:49:43;;;;;;;10.58;9.05;;;27.50;67.50;;;;;;1886455;75;21090;-67
2022/07/13 06:52:12;;;;;;;9.15;8.08;;;27.60;67.40;;;;;;1886563;76;21026;-67
2022/07/13 06:54:41;;;;;;;13.68;9.23;;;27.60;67.40;;;;;;1886571;76;21112;-67
2022/07/13 06:57:11;;;;;;;12.78;9.25;;;27.60;67.40;;;;;;1886930;76;21133;-67
2022/07/13 06:59:42;;;;;;;9.68;8.63;;;27.60;67.10;;;;;;1921568;75;21485;-67
2022/07/13 07:02:11;;;;;;;9.58;7.42;;;27.70;67.00;;;;;;1921624;75;21039;-67
2022/07/13 07:04:40;;;;;;;16.12;8.83;;;27.70;67.30;;;;;;1921557;75;21113;-67
2022/07/13 07:07:10;;;;;;;27.07;9.73;;;27.70;67.10;;;;;;1921528;75;21027;-67
2022/07/13 07:09:39;;;;;;;9.05;8.08;;;27.60;67.10;;;;;;1921575;75;21019;-67
2022/07/13 07:12:09;;;;;;;10.10;8.00;;;27.60;67.10;;;;;;1921510;75;21007;-67
2022/07/13 07:14:38;;;;;;;8.98;8.08;;;27.60;67.10;;;;;;1921477;75;21108;-67
2022/07/13 07:17:07;;;;;;;11.35;7.60;;;27.60;67.00;;;;;;1921464;75;21109;-67
2022/07/13 07:19:37;;;;;;;12.23;7.90;;;27.60;66.90;;;;;;1921484;75;21082;-67
2022/07/13 07:22:07;;;;;;;10.35;7.20;;;27.80;66.70;;;;;;1921316;75;21035;-67
2022/07/13 07:24:36;;;;;;;11.88;6.78;;;27.90;66.40;;;;;;1921338;75;21079;-66
2022/07/13 07:27:07;;;;;;;10.15;7.65;;;28.00;66.10;;;;;;1921262;75;21023;-66
2022/07/13 07:29:37;;;;;;;10.78;7.37;;;28.10;65.60;;;;;;1921333;75;21029;-66
2022/07/13 07:32:07;;;;;;;8.53;6.20;;;28.20;65.10;;;;;;1921378;75;21105;-65
2022/07/13 07:34:36;;;;;;;9.38;6.28;;;28.10;65.20;;;;;;1921339;75;21108;-65
2022/07/13 07:37:06;;;;;;;25.23;7.78;;;28.10;65.50;;;;;;1921444;75;21027;-65
2022/07/13 07:39:37;;;;;;;8.40;6.37;;;28.20;65.00;;;;;;1921235;75;21113;-65
2022/07/13 07:42:06;;;;;;;7.17;5.83;;;28.20;64.60;;;;;;1921346;75;21097;-65
2022/07/13 07:44:35;;;;;;;9.33;6.17;;;28.20;64.80;;;;;;1921397;75;21007;-64
2022/07/13 07:47:05;;;;;;;9.45;5.92;;;28.30;64.90;;;;;;1921447;75;21066;-64
2022/07/13 07:49:34;;;;;;;8.40;6.42;;;28.50;64.70;;;;;;1921465;75;21470;-64
2022/07/13 07:52:04;;;;;;;9.33;6.50;;;28.60;64.30;;;;;;1921471;75;21094;-64
2022/07/13 07:54:33;;;;;;;6.45;5.62;;;28.70;64.00;;;;;;1921289;75;21043;-64
2022/07/13 07:57:03;;;;;;;8.75;6.30;;;28.70;63.90;;;;;;1919576;74;21109;-65
2022/07/13 07:59:32;;;;;;;11.45;7.25;;;28.70;63.70;;;;;;1917544;75;21112;-65
2022/07/13 08:02:07;;;;;;;7.65;4.87;;;28.70;63.00;;;;;;1917594;75;21023;-65
2022/07/13 08:04:42;;;;;;;5.80;5.30;;;28.60;62.80;;;;;;1827475;77;21099;-65
2022/07/13 08:07:12;;;;;;;7.47;6.58;;;28.60;62.40;;;;;;1831769;78;21127;-65
2022/07/13 08:09:41;;;;;;;13.43;10.85;;;28.60;62.40;;;;;;1831779;78;21216;-65
2022/07/13 08:12:11;;;;;;;8.25;6.33;;;28.60;63.30;;;;;;1831878;78;21048;-65
2022/07/13 08:14:40;;;;;;;6.85;5.97;;;28.70;62.60;;;;;;1831749;78;21029;-65
2022/07/13 08:17:10;;;;;;;8.90;6.03;;;28.80;62.40;;;;;;1831839;78;21049;-65
2022/07/13 08:19:39;;;;;;;8.93;5.47;;;28.80;61.90;;;;;;1831720;78;21033;-65
2022/07/13 08:22:09;;;;;;;5.90;5.10;;;28.80;62.00;;;;;;1831914;78;21076;-65
2022/07/13 08:24:39;;;;;;;5.60;4.75;;;28.90;62.00;;;;;;1831840;78;21122;-65
2022/07/13 08:27:08;;;;;;;10.60;6.00;;;28.90;62.00;;;;;;1831910;78;21123;-65
2022/07/13 08:29:39;;;;;;;5.47;4.97;;;28.90;62.10;;;;;;1831778;78;21107;-65
2022/07/13 08:32:08;;;;;;;8.15;5.45;;;29.00;61.60;;;;;;1831796;78;21119;-65
2022/07/13 08:40:13;;;;;;;8.15;5.25;;;29.00;61.80;;;;;;1831656;78;21123;-65
2022/07/13 08:42:42;;;;;;;8.83;5.12;;;29.10;61.50;;;;;;1831658;78;21053;-65
2022/07/13 08:45:13;;;;;;;6.05;4.83;;;29.10;61.40;;;;;;1831665;78;21029;-66
2022/07/13 08:47:47;;;;;;;5.75;5.15;;;29.10;61.40;;;;;;1831232;78;21073;-62
2022/07/13 08:50:17;;;;;;;8.88;5.75;;;29.20;61.10;;;;;;1830555;78;21107;-64
2022/07/13 08:52:47;;;;;;;7.30;4.92;;;29.20;61.60;;;;;;1831269;78;21512;-62
2022/07/13 08:55:16;;;;;;;4.95;4.45;;;29.20;60.80;;;;;;1831068;78;21045;-61
2022/07/13 08:57:46;;;;;;;7.60;4.80;;;29.40;60.60;;;;;;1831109;78;21069;-62
2022/07/13 09:00:17;;;;;;;7.22;4.70;;;29.40;60.50;;;;;;1831283;78;21193;-60
2022/07/13 09:02:49;;;;;;;5.55;5.00;;;29.50;60.00;;;;;;1831197;78;21202;-63
2022/07/13 09:05:20;;;;;;;7.33;4.85;;;29.60;60.10;;;;;;1825235;78;21130;-67
2022/07/13 09:08:03;;;;;;;7.87;5.40;;;29.50;59.70;;;;;;1824993;78;21097;-63
2022/07/13 09:10:33;;;;;;;7.90;5.15;;;29.40;60.20;;;;;;1824623;79;21054;-64
2022/07/13 09:13:02;;;;;;;5.33;4.72;;;29.30;60.10;;;;;;1824727;79;21046;-63
2022/07/13 09:15:32;;;;;;;25.88;7.90;;;29.20;60.50;;;;;;1824773;79;21087;-61
2022/07/13 09:18:02;;;;;;;6.37;4.42;;;29.20;60.70;;;;;;1824623;77;21119;-62
2022/07/13 09:20:31;;;;;;;10.82;4.67;;;29.40;60.00;;;;;;1824726;79;21021;-66
2022/07/13 09:23:01;;;;;;;20.52;14.18;;;29.50;59.60;;;;;;1824974;79;21040;-64
2022/07/13 09:25:39;;;;;;;7.70;4.58;;;29.70;59.30;;;;;;1824728;79;21628;-60
2022/07/13 09:28:10;;;;;;;6.47;5.10;;;29.70;58.70;;;;;;1824800;79;21142;-64
2022/07/13 09:30:45;;;;;;;5.60;5.10;;;29.90;58.40;;;;;;1824655;77;21052;-63
2022/07/13 09:33:14;;;;;;;16.73;15.00;;;29.90;58.50;;;;;;1824734;79;21162;-64
2022/07/13 09:35:46;;;;;;;11.55;10.35;;;30.00;58.20;;;;;;1824658;79;21045;-63
2022/07/13 09:38:36;;;;;;;11.03;6.33;;;30.20;58.60;;;;;;1824613;79;21095;-64
2022/07/13 09:41:22;;;;;;;7.97;5.03;;;30.20;58.20;;;;;;1824648;79;21130;-64
2022/07/13 09:47:01;;;;;;;6.42;5.10;;;30.10;57.60;;;;;;1824758;77;21060;-63
2022/07/13 09:49:41;;;;;;;6.45;5.37;;;30.20;57.70;;;;;;1824672;77;21040;-64
2022/07/13 09:52:11;;;;;;;6.95;4.70;;;30.30;57.00;;;;;;1824577;78;21064;-62
2022/07/13 09:54:42;;;;;;;6.92;4.53;;;30.40;56.90;;;;;;1824678;79;21060;-61
2022/07/13 09:57:14;;;;;;;6.72;4.47;;;30.50;56.30;;;;;;1824847;79;21103;-62
2022/07/13 09:59:44;;;;;;;5.37;4.87;;;30.70;56.50;;;;;;1824653;77;21076;-65
2022/07/13 10:02:15;;;;;;;5.22;4.33;;;30.80;56.10;;;;;;1824714;79;21494;-69
2022/07/13 10:04:46;;;;;;;12.93;5.10;;;31.00;55.60;;;;;;1824730;77;21146;-61
2022/07/13 10:07:16;;;;;;;8.00;5.20;;;31.00;55.50;;;;;;1824764;79;22244;-65
2022/07/13 10:09:46;;;;;;;5.12;4.62;;;31.00;55.00;;;;;;1824599;79;21095;-64
2022/07/13 10:12:16;;;;;;;5.70;4.10;;;30.90;54.70;;;;;;1824789;77;21087;-63
2022/07/13 10:14:45;;;;;;;8.65;5.33;;;30.70;54.90;;;;;;1824782;78;21091;-65
2022/07/13 10:17:15;;;;;;;6.47;4.78;;;30.70;55.40;;;;;;1824702;79;21013;-63
2022/07/13 10:19:46;;;;;;;5.67;4.25;;;30.70;55.50;;;;;;1824604;79;21085;-59
2022/07/13 10:22:21;;;;;;;4.25;3.85;;;30.90;55.50;;;;;;1824375;79;21581;-61
2022/07/13 10:24:57;;;;;;;;;;;31.00;55.00;;;;;;1827370;78;21415;-65
2022/07/13 10:27:34;;;;;;;6.55;4.70;;;31.00;53.50;;;;;;1824764;79;20194;-64
2022/07/13 10:30:18;;;;;;;7.35;4.50;;;30.80;54.60;;;;;;1824564;79;21080;-61
2022/07/13 10:32:48;;;;;;;5.92;4.62;;;30.80;54.40;;;;;;1824177;79;21104;-64
2022/07/13 10:35:20;;;;;;;4.90;4.42;;;30.70;55.10;;;;;;1824549;79;21028;-60
2022/07/13 10:38:01;;;;;;;7.33;4.58;;;30.60;55.30;;;;;;1824770;79;21166;-59
2022/07/13 10:40:31;;;;;;;5.25;4.75;;;30.70;55.40;;;;;;1824631;79;21483;-60
2022/07/13 10:43:05;;;;;;;5.12;4.33;;;30.60;54.90;;;;;;1824713;78;21033;-64
2022/07/13 10:45:41;;;;;;;4.90;3.90;;;30.60;54.70;;;;;;1824672;79;21112;-61
2022/07/13 10:48:34;;;;;;;10.35;5.28;;;30.50;54.60;;;;;;1824765;79;21130;-64
2022/07/13 10:51:02;;;;;;;6.17;3.98;;;30.50;55.10;;;;;;1824710;78;21068;-61
2022/07/13 10:53:42;;;;;;;4.25;3.72;;;30.50;54.30;;;;;;1824589;79;21036;-61
2022/07/13 10:56:21;;;;;;;7.17;4.53;;;30.60;54.00;;;;;;1822251;79;21008;-59
2022/07/13 10:58:51;;;;;;;5.35;4.25;;;30.60;54.20;;;;;;1824785;79;21456;-61
2022/07/13 11:01:41;;;;;;;5.60;4.58;;;30.60;53.60;;;;;;1824716;79;21546;-61
2022/07/13 11:04:06;;;;;;;7.40;5.08;;;30.70;53.50;;;;;;1823848;78;21072;-65
2022/07/13 11:06:36;;;;;;;5.70;4.45;;;30.70;53.30;;;;;;1848348;77;21177;-61
2022/07/13 11:09:16;;;;;;;4.72;4.12;;;30.70;52.90;;;;;;1848767;77;21171;-63
2022/07/13 11:11:50;;;;;;;6.12;4.08;;;30.80;53.20;;;;;;1848976;77;21037;-61
2022/07/13 11:14:40;;;;;;;4.42;4.00;;;31.00;53.20;;;;;;1849082;77;21041;-63
2022/07/13 11:17:13;;;;;;;7.67;4.53;;;31.10;52.70;;;;;;1848745;77;21042;-63
2022/07/13 11:20:03;;;;;;;12.63;5.20;;;31.20;51.80;;;;;;1848834;77;21057;-63
2022/07/13 11:25:28;;;;;;;9.35;5.25;;;31.10;52.10;;;;;;1848602;77;21109;-62
2022/07/13 11:28:06;;;;;;;4.95;4.12;;;31.00;51.90;;;;;;1848777;77;21085;-61
2022/07/13 11:30:40;;;;;;;6.60;4.00;;;31.00;51.80;;;;;;1848125;77;21496;-61
2022/07/13 11:33:12;;;;;;;6.22;4.80;;;31.10;52.20;;;;;;1848491;77;21077;-60
2022/07/13 11:35:49;;;;;;;6.97;4.40;;;31.10;52.20;;;;;;1848732;77;21155;-60
2022/07/13 11:38:20;;;;;;;7.00;4.10;;;31.20;51.80;;;;;;1848837;77;21057;-61
2022/07/13 11:40:50;;;;;;;5.10;4.40;;;31.30;52.10;;;;;;1848860;77;21201;-61
2022/07/13 11:43:19;;;;;;;4.78;4.28;;;31.30;51.50;;;;;;1848888;77;21529;-62
2022/07/13 11:45:49;;;;;;;15.35;5.50;;;31.20;51.50;;;;;;1848685;77;21049;-59
2022/07/13 11:48:18;;;;;;;10.00;4.53;;;31.10;51.70;;;;;;1848719;77;21163;-60
2022/07/13 11:50:52;;;;;;;6.80;4.83;;;31.00;51.60;;;;;;1848806;77;21088;-64
2022/07/13 11:53:27;;;;;;;6.55;4.40;;;31.00;51.90;;;;;;1848969;77;21104;-63
2022/07/13 11:55:58;;;;;;;4.67;4.15;;;31.10;51.40;;;;;;1848964;77;21084;-59
2022/07/13 11:58:32;;;;;;;5.92;4.10;;;31.30;51.20;;;;;;1847810;77;21538;-63
2022/07/13 12:01:04;;;;;;;6.03;3.92;;;31.50;51.00;;;;;;1848822;77;21092;-63
2022/07/13 12:03:35;;;;;;;6.97;4.50;;;31.60;50.60;;;;;;1847752;77;21124;-60
2022/07/13 12:06:11;;;;;;;5.92;4.20;;;31.80;50.10;;;;;;1834543;77;21474;-62
2022/07/13 12:08:42;;;;;;;9.23;4.40;;;32.00;49.40;;;;;;1821480;77;21104;-60
2022/07/13 12:11:14;;;;;;;5.78;4.78;;;32.00;49.20;;;;;;1822288;79;21044;-60
2022/07/13 12:13:45;;;;;;;8.93;4.37;;;32.00;49.00;;;;;;1822537;79;21100;-61
2022/07/13 12:16:16;;;;;;;7.12;4.67;;;31.90;49.10;;;;;;1822447;79;21043;-61
2022/07/13 12:19:08;;;;;;;8.18;3.67;;;31.80;49.70;;;;;;1822241;79;21111;-63
2022/07/13 12:21:39;;;;;;;13.53;4.60;;;31.60;50.60;;;;;;1822172;79;21076;-61
2022/07/13 12:24:08;;;;;;;7.10;3.85;;;31.20;51.70;;;;;;1822320;79;21537;-66
2022/07/13 12:26:37;;;;;;;5.80;3.92;;;30.90;52.80;;;;;;1822282;78;21110;-60
2022/07/13 12:29:07;;;;;;;8.63;4.87;;;30.50;53.70;;;;;;1822142;79;21243;-56
2022/07/13 12:31:36;;;;;;;9.25;3.72;;;30.30;54.00;;;;;;1822361;78;21079;-58
2022/07/13 12:34:06;;;;;;;8.13;2.72;;;30.10;54.50;;;;;;1822405;79;21480;-58
2022/07/13 12:36:37;;;;;;;22.50;5.08;;;30.10;54.80;;;;;;1822955;78;21081;-58
2022/07/13 12:39:07;;;;;;;6.05;4.37;;;29.90;55.30;;;;;;1823017;77;21072;-59
2022/07/13 12:41:44;;;;;;;16.48;5.25;;;29.80;56.00;;;;;;1823020;77;21040;-60
2022/07/13 12:44:15;;;;;;;8.60;3.72;;;29.70;56.90;;;;;;1823017;79;21119;-62
2022/07/13 12:46:55;;;;;;;6.10;3.98;;;29.80;57.30;;;;;;1822900;79;21017;-62
2022/07/13 12:49:38;;;;;;;8.68;4.45;;;29.80;57.70;;;;;;1822985;77;21035;-61
2022/07/13 12:52:10;;;;;;;7.33;4.87;;;29.80;57.30;;;;;;1822989;79;21104;-61
2022/07/13 12:54:50;;;;;;;6.62;4.37;;;29.60;57.70;;;;;;1822483;77;21537;-61
2022/07/13 12:57:21;;;;;;;4.75;3.47;;;29.60;58.00;;;;;;1822878;79;21123;-61
2022/07/13 13:00:13;;;;;;;12.98;4.70;;;29.60;58.10;;;;;;1822809;79;21057;-61
2022/07/13 13:02:40;;;;;;;4.58;4.12;;;29.70;58.40;;;;;;1822884;78;21115;-61
2022/07/13 13:05:10;;;;;;;5.60;4.12;;;29.80;57.80;;;;;;1822774;79;21072;-61
2022/07/13 13:07:40;;;;;;;8.48;4.55;;;29.90;57.90;;;;;;1847310;77;21061;-61
2022/07/13 13:10:10;;;;;;;4.37;3.98;;;30.00;57.40;;;;;;1849317;77;21550;-63
2022/07/13 13:12:39;;;;;;;7.10;4.47;;;29.90;56.60;;;;;;1849507;77;21034;-61
2022/07/13 13:15:09;;;;;;;5.95;4.25;;;29.90;57.10;;;;;;1849330;77;21041;-62
2022/07/13 13:17:39;;;;;;;8.23;3.70;;;29.90;57.30;;;;;;1849306;77;21045;-61